createdAt,value
2022-08-24T00:02:02.685Z,20.24
2022-08-24T00:04:32.105Z,20.16
2022-08-24T00:07:02.197Z,20.14
2022-08-24T00:09:32.737Z,20.14
2022-08-24T00:12:00.774Z,20.15
2022-08-24T00:14:28.524Z,20.23
2022-08-24T00:16:56.384Z,20.13
2022-08-24T00:19:25.376Z,20.10
2022-08-24T00:21:53.047Z,20.06
2022-08-24T00:24:21.172Z,20.09
2022-08-24T00:26:48.959Z,20.04
2022-08-24T00:29:18.565Z,20.03
2022-08-24T00:31:46.821Z,19.98
2022-08-24T00:34:15.143Z,20.01
2022-08-24T00:36:42.831Z,20.02
2022-08-24T00:39:12.337Z,19.96
2022-08-24T00:41:47.368Z,19.95
2022-08-24T00:44:16.898Z,19.90
2022-08-24T00:47:14.170Z,19.87
2022-08-24T00:50:02.441Z,19.80
2022-08-24T00:52:41.814Z,19.81
2022-08-24T00:55:26.484Z,19.79
2022-08-24T00:58:02.847Z,19.80
2022-08-24T01:00:40.205Z,19.89
2022-08-24T01:03:10.219Z,19.86
2022-08-24T01:05:39.916Z,19.83
2022-08-24T01:08:10.856Z,19.77
2022-08-24T01:10:46.906Z,19.67
2022-08-24T01:13:15.745Z,19.69
2022-08-24T01:15:48.627Z,19.75
2022-08-24T01:18:41.052Z,19.84
2022-08-24T01:21:29.477Z,19.95
2022-08-24T01:24:00.817Z,20.01
2022-08-24T01:26:34.610Z,20.07
2022-08-24T01:29:19.873Z,20.11
2022-08-24T01:31:52.228Z,20.18
2022-08-24T01:34:20.790Z,20.23
2022-08-24T01:36:56.238Z,20.23
2022-08-24T01:39:36.003Z,20.25
2022-08-24T01:42:04.973Z,20.28
2022-08-24T01:44:34.973Z,20.33
2022-08-24T01:47:07.528Z,20.35
2022-08-24T01:49:44.469Z,20.33
2022-08-24T01:52:21.137Z,20.35
2022-08-24T01:54:49.952Z,20.36
2022-08-24T01:57:20.456Z,20.36
2022-08-24T01:59:51.571Z,20.34
2022-08-24T02:02:31.135Z,20.31
2022-08-24T02:05:00.368Z,20.25
2022-08-24T02:07:29.749Z,20.22
2022-08-24T02:09:57.243Z,20.18
2022-08-24T02:12:26.689Z,20.13
2022-08-24T02:14:54.452Z,20.10
2022-08-24T02:17:22.117Z,20.14
2022-08-24T02:19:51.403Z,20.17
2022-08-24T02:22:19.955Z,20.23
2022-08-24T02:24:47.638Z,20.17
2022-08-24T02:27:17.051Z,20.16
2022-08-24T02:29:44.774Z,20.13
2022-08-24T02:32:13.772Z,20.13
2022-08-24T02:34:44.122Z,20.15
2022-08-24T02:37:12.693Z,20.20
2022-08-24T02:39:40.503Z,20.21
2022-08-24T02:42:15.468Z,20.24
2022-08-24T02:44:43.237Z,20.23
2022-08-24T02:47:10.933Z,20.27
2022-08-24T02:49:38.670Z,20.26
2022-08-24T02:52:06.973Z,20.25
2022-08-24T02:54:37.156Z,20.16
2022-08-24T02:57:05.397Z,20.16
2022-08-24T02:59:32.933Z,20.14
2022-08-24T03:02:00.689Z,20.15
2022-08-24T03:04:28.780Z,20.17
2022-08-24T03:06:56.443Z,20.17
2022-08-24T03:09:24.016Z,20.22
2022-08-24T03:11:58.780Z,20.24
2022-08-24T03:14:26.477Z,20.18
2022-08-24T03:16:55.031Z,20.17
2022-08-24T03:19:24.106Z,20.21
2022-08-24T03:21:53.656Z,20.21
2022-08-24T03:24:21.707Z,20.24
2022-08-24T03:26:50.403Z,20.27
2022-08-24T03:29:18.105Z,20.30
2022-08-24T03:31:46.198Z,20.28
2022-08-24T03:34:15.186Z,20.25
2022-08-24T03:36:46.841Z,20.18
2022-08-24T03:39:17.165Z,20.21
2022-08-24T03:41:45.701Z,20.23
2022-08-24T03:44:13.235Z,20.30
2022-08-24T03:46:41.674Z,20.34
2022-08-24T03:49:10.358Z,20.37
2022-08-24T03:51:38.857Z,20.45
2022-08-24T03:54:09.655Z,20.42
2022-08-24T03:56:37.769Z,20.34
2022-08-24T03:59:07.662Z,20.34
2022-08-24T04:01:40.403Z,20.37
2022-08-24T04:04:09.729Z,20.32
2022-08-24T04:06:38.778Z,20.27
2022-08-24T04:09:07.867Z,20.29
2022-08-24T04:11:41.511Z,20.33
2022-08-24T04:14:26.724Z,20.28
2022-08-24T04:17:04.961Z,20.16
2022-08-24T04:19:38.194Z,20.14
2022-08-24T04:22:05.756Z,20.18
2022-08-24T04:24:33.378Z,20.18
2022-08-24T04:27:01.271Z,20.14
2022-08-24T04:29:28.815Z,20.20
2022-08-24T04:31:56.366Z,20.16
2022-08-24T04:34:24.874Z,20.11
2022-08-24T04:36:52.505Z,20.13
2022-08-24T04:39:20.173Z,20.18
2022-08-24T04:42:08.198Z,20.25
2022-08-24T04:44:39.796Z,20.31
2022-08-24T04:47:08.836Z,20.36
2022-08-24T04:49:39.219Z,20.44
2022-08-24T04:52:08.551Z,20.53
2022-08-24T04:54:36.641Z,20.51
2022-08-24T04:57:17.411Z,20.53
2022-08-24T04:59:47.381Z,20.49
2022-08-24T05:02:15.273Z,20.48
2022-08-24T05:04:45.342Z,20.40
2022-08-24T05:07:13.730Z,20.39
2022-08-24T05:09:44.890Z,20.45
2022-08-24T05:12:12.471Z,20.41
2022-08-24T05:14:48.753Z,20.36
2022-08-24T05:17:18.116Z,20.37
2022-08-24T05:19:45.874Z,20.34
2022-08-24T05:22:13.722Z,20.36
2022-08-24T05:24:46.994Z,20.40
2022-08-24T05:27:15.971Z,20.39
2022-08-24T05:29:47.541Z,20.43
2022-08-24T05:32:17.998Z,20.48
2022-08-24T05:34:46.142Z,20.53
2022-08-24T05:37:14.180Z,20.64
2022-08-24T05:40:07.504Z,20.74
2022-08-24T05:42:37.454Z,20.78
2022-08-24T05:45:07.170Z,20.82
2022-08-24T05:47:35.581Z,20.84
2022-08-24T05:50:11.491Z,20.86
2022-08-24T05:52:39.093Z,20.87
2022-08-24T05:55:08.101Z,20.87
2022-08-24T05:57:38.216Z,20.82
2022-08-24T06:00:33.508Z,20.73
2022-08-24T06:03:01.237Z,20.71
2022-08-24T06:05:28.982Z,20.71
2022-08-24T06:07:57.912Z,20.71
2022-08-24T06:10:36.740Z,20.71
2022-08-24T06:13:06.368Z,20.72
2022-08-24T06:15:35.881Z,20.72
2022-08-24T06:18:04.825Z,20.74
2022-08-24T06:20:33.749Z,20.79
2022-08-24T06:23:01.771Z,20.79
2022-08-24T06:25:59.796Z,20.79
2022-08-24T06:28:27.965Z,20.76
2022-08-24T06:31:05.873Z,20.80
2022-08-24T06:33:34.697Z,20.83
2022-08-24T06:36:03.578Z,20.86
2022-08-24T06:38:32.584Z,20.85
2022-08-24T06:41:05.802Z,20.88
2022-08-24T06:43:34.833Z,20.91
2022-08-24T06:46:11.514Z,20.97
2022-08-24T06:48:46.726Z,21.01
2022-08-24T06:51:18.524Z,21.01
2022-08-24T06:53:47.236Z,20.99
2022-08-24T06:56:15.950Z,20.93
2022-08-24T06:58:44.924Z,20.95
2022-08-24T07:01:21.664Z,20.87
2022-08-24T07:03:50.745Z,20.82
2022-08-24T07:06:37.283Z,20.77
2022-08-24T07:09:05.644Z,20.76
2022-08-24T07:11:35.118Z,20.80
2022-08-24T07:14:04.052Z,20.80
2022-08-24T07:16:34.830Z,20.86
2022-08-24T07:19:06.195Z,20.90
2022-08-24T07:21:34.385Z,20.94
2022-08-24T07:24:04.241Z,20.99
2022-08-24T07:26:35.638Z,21.04
2022-08-24T07:29:24.982Z,21.10
2022-08-24T07:31:58.819Z,21.14
2022-08-24T07:34:37.694Z,21.17
2022-08-24T07:37:07.918Z,21.17
2022-08-24T07:39:38.550Z,21.16
2022-08-24T07:42:13.287Z,21.18
2022-08-24T07:44:42.241Z,21.17
2022-08-24T07:47:34.712Z,21.19
2022-08-24T07:49:58.436Z,21.19
2022-08-24T07:52:27.982Z,21.21
2022-08-24T07:54:56.536Z,21.25
2022-08-24T07:57:24.906Z,21.24
2022-08-24T07:59:52.916Z,21.27
2022-08-24T08:02:20.559Z,21.29
2022-08-24T08:04:54.496Z,21.25
2022-08-24T08:07:22.072Z,21.22
2022-08-24T08:09:50.917Z,21.21
2022-08-24T08:12:19.425Z,21.14
2022-08-24T08:14:56.351Z,21.12
2022-08-24T08:17:24.534Z,21.09
2022-08-24T08:19:52.371Z,21.09
2022-08-24T08:22:38.576Z,21.06
2022-08-24T08:25:24.821Z,21.04
2022-08-24T08:27:52.706Z,21.10
2022-08-24T08:30:20.546Z,21.18
2022-08-24T08:32:48.366Z,21.27
2022-08-24T08:35:16.104Z,21.32
2022-08-24T08:37:44.409Z,21.39
2022-08-24T08:40:45.476Z,21.46
2022-08-24T08:43:43.725Z,21.50
2022-08-24T08:46:54.258Z,21.43
2022-08-24T08:49:56.388Z,21.43
2022-08-24T08:52:58.089Z,21.36
2022-08-24T08:56:07.301Z,21.32
2022-08-24T08:59:01.750Z,21.36
2022-08-24T09:02:05.526Z,21.50
2022-08-24T09:04:55.203Z,21.56
2022-08-24T09:48:01.484Z,22.70
2022-08-24T09:50:55.983Z,22.77
2022-08-24T09:53:51.002Z,22.79
2022-08-24T09:56:59.800Z,22.71
2022-08-24T10:00:10.698Z,22.66
2022-08-24T10:02:46.402Z,22.56
2022-08-24T10:05:20.091Z,22.38
2022-08-24T10:08:08.531Z,22.19
2022-08-24T10:11:20.376Z,22.14
2022-08-24T10:14:25.100Z,22.13
2022-08-24T10:17:22.857Z,22.20
2022-08-24T10:20:24.578Z,22.28
2022-08-24T10:23:38.409Z,22.22
2022-08-24T10:26:29.525Z,22.16
2022-08-24T10:29:22.456Z,22.20
2022-08-24T10:32:30.511Z,22.32
2022-08-24T10:35:14.705Z,22.43
2022-08-24T10:42:37.880Z,22.66
2022-08-24T10:45:43.540Z,22.74
2022-08-24T10:48:33.371Z,22.84
2022-08-24T10:51:37.131Z,22.90
2022-08-24T10:54:06.645Z,22.98
2022-08-24T10:56:36.818Z,23.07
2022-08-24T10:59:31.742Z,23.19
2022-08-24T11:02:36.725Z,23.24
2022-08-24T11:05:16.995Z,23.24
2022-08-24T11:08:19.936Z,23.32
2022-08-24T11:11:08.009Z,23.38
2022-08-24T11:13:49.431Z,23.42
2022-08-24T11:16:40.653Z,23.45
2022-08-24T11:19:29.722Z,23.46
2022-08-24T11:22:21.473Z,23.52
2022-08-24T11:24:55.013Z,23.52
2022-08-24T11:27:39.961Z,23.57
2022-08-24T11:30:23.525Z,23.60
2022-08-24T11:32:58.568Z,23.62
2022-08-24T11:35:35.230Z,23.66
2022-08-24T11:38:21.079Z,23.67
2022-08-24T11:41:12.902Z,23.60
2022-08-24T11:44:05.865Z,23.43
2022-08-24T11:46:46.765Z,23.39
2022-08-24T11:49:35.367Z,23.40
2022-08-24T11:52:15.764Z,23.46
2022-08-24T11:55:11.198Z,23.54
2022-08-24T11:57:51.065Z,23.60
2022-08-24T12:00:27.000Z,23.64
2022-08-24T12:03:06.980Z,23.68
2022-08-24T12:05:37.491Z,23.72
2022-08-24T12:08:35.264Z,23.77
2022-08-24T12:11:33.365Z,23.78
2022-08-24T12:14:29.724Z,23.68
2022-08-24T12:17:18.853Z,23.63
2022-08-24T12:19:53.501Z,23.64
2022-08-24T12:22:22.397Z,23.67
2022-08-24T12:24:59.882Z,23.67
2022-08-24T12:27:35.386Z,23.69
2022-08-24T12:30:13.232Z,23.71
2022-08-24T12:32:46.230Z,23.72
2022-08-24T12:35:39.331Z,23.74
2022-08-24T12:38:09.561Z,23.81
2022-08-24T12:41:20.246Z,23.85
2022-08-24T12:43:52.529Z,23.81
2022-08-24T12:46:26.177Z,23.79
2022-08-24T12:49:22.484Z,23.75
2022-08-24T12:52:28.584Z,23.85
2022-08-24T12:55:36.000Z,23.93
2022-08-24T12:58:54.061Z,24.06
2022-08-24T13:01:29.778Z,24.07
2022-08-24T13:04:31.649Z,24.14
2022-08-24T13:31:59.719Z,24.42
2022-08-24T13:34:44.309Z,24.34
2022-08-24T13:37:22.318Z,24.27
2022-08-24T13:40:25.246Z,24.35
2022-08-24T13:43:17.746Z,24.46
2022-08-24T13:46:01.553Z,24.67
2022-08-24T13:48:50.413Z,24.90
2022-08-24T13:51:44.698Z,25.07
2022-08-24T13:54:32.365Z,25.24
2022-08-24T13:57:28.877Z,25.39
2022-08-24T14:00:12.734Z,25.58
2022-08-24T14:03:21.335Z,25.73
2022-08-24T14:06:03.769Z,25.85
2022-08-24T14:09:22.711Z,25.80
2022-08-24T14:12:06.587Z,25.79
2022-08-24T14:15:07.533Z,26.01
2022-08-24T14:18:14.021Z,26.13
2022-08-24T14:21:08.131Z,26.35
2022-08-24T14:24:05.282Z,26.56
2022-08-24T14:26:40.256Z,26.73
2022-08-24T14:29:20.256Z,26.82
2022-08-24T14:32:12.203Z,26.91
2022-08-24T14:35:02.872Z,27.06
2022-08-24T14:38:05.664Z,27.14
2022-08-24T14:41:24.285Z,27.20
2022-08-24T14:44:15.910Z,27.28
2022-08-24T14:47:04.531Z,27.31
2022-08-24T14:50:12.885Z,27.28
2022-08-24T14:53:07.329Z,27.03
2022-08-24T14:56:01.117Z,26.76
2022-08-24T14:59:24.358Z,26.42
2022-08-24T15:02:26.093Z,26.12
2022-08-24T15:05:13.653Z,25.92
2022-08-24T15:07:51.616Z,25.68
2022-08-24T15:10:26.362Z,25.57
2022-08-24T15:13:04.451Z,25.47
2022-08-24T15:16:05.639Z,25.52
2022-08-24T15:19:18.089Z,25.61
2022-08-24T15:22:03.830Z,25.79
2022-08-24T15:25:10.899Z,25.96
2022-08-24T15:27:47.834Z,26.18
2022-08-24T15:30:37.288Z,26.46
2022-08-24T15:33:18.900Z,26.82
2022-08-24T15:36:04.224Z,27.22
2022-08-24T15:38:35.871Z,27.60
2022-08-24T15:41:12.853Z,27.93
2022-08-24T15:43:44.770Z,28.28
2022-08-24T15:46:14.084Z,28.61
2022-08-24T15:48:50.909Z,28.78
2022-08-24T15:51:55.111Z,29.10
2022-08-24T15:54:26.786Z,29.40
2022-08-24T15:57:17.571Z,29.82
2022-08-24T15:59:50.835Z,30.21
2022-08-24T16:02:31.406Z,30.60
2022-08-24T16:05:36.149Z,31.14
2022-08-24T16:08:04.015Z,31.64
2022-08-24T16:10:45.231Z,31.99
2022-08-24T16:13:20.599Z,32.32
2022-08-24T16:16:09.205Z,32.64
2022-08-24T16:18:49.884Z,33.00
2022-08-24T16:21:29.863Z,33.26
2022-08-24T16:24:30.153Z,33.45
2022-08-24T16:27:10.577Z,33.40
2022-08-24T16:29:37.938Z,33.26
2022-08-24T16:32:32.554Z,32.84
2022-08-24T16:35:22.259Z,32.47
2022-08-24T16:37:52.343Z,32.15
2022-08-24T16:40:20.770Z,31.78
2022-08-24T16:42:48.418Z,31.41
2022-08-24T16:45:21.636Z,30.92
2022-08-24T16:47:49.738Z,29.97
2022-08-24T16:50:20.603Z,29.56
2022-08-24T16:52:50.199Z,29.08
2022-08-24T16:55:18.151Z,28.68
2022-08-24T16:57:46.482Z,27.95
2022-08-24T17:00:19.220Z,27.47
2022-08-24T17:02:48.292Z,27.06
2022-08-24T17:05:17.043Z,26.69
2022-08-24T17:07:45.147Z,26.36
2022-08-24T17:10:16.924Z,26.08
2022-08-24T17:12:44.576Z,25.88
2022-08-24T17:15:16.541Z,25.72
2022-08-24T17:18:09.794Z,25.52
2022-08-24T17:20:37.340Z,25.38
2022-08-24T17:23:05.877Z,25.26
2022-08-24T17:25:33.538Z,25.13
2022-08-24T17:28:01.708Z,24.96
2022-08-24T17:30:30.175Z,24.80
2022-08-24T17:32:59.738Z,24.64
2022-08-24T17:35:27.520Z,24.51
2022-08-24T17:37:55.430Z,24.41
2022-08-24T17:40:26.649Z,24.30
2022-08-24T17:42:54.398Z,24.19
2022-08-24T17:45:23.077Z,24.06
2022-08-24T17:47:52.456Z,23.96
2022-08-24T17:50:21.816Z,23.88
2022-08-24T17:52:49.740Z,23.81
2022-08-24T17:55:25.082Z,23.73
2022-08-24T17:57:53.364Z,23.65
2022-08-24T18:00:21.050Z,23.58
2022-08-24T18:02:48.559Z,23.50
2022-08-24T18:05:36.582Z,23.42
2022-08-24T18:08:04.297Z,23.37
2022-08-24T18:10:32.566Z,23.29
2022-08-24T18:13:02.211Z,23.24
2022-08-24T18:15:35.996Z,23.21
2022-08-24T18:18:08.656Z,23.17
2022-08-24T18:20:40.719Z,23.14
2022-08-24T18:23:11.145Z,23.11
2022-08-24T18:25:49.302Z,23.07
2022-08-24T18:28:20.698Z,23.04
2022-08-24T18:30:48.623Z,23.02
2022-08-24T18:33:17.578Z,22.99
2022-08-24T18:35:48.693Z,22.96
2022-08-24T18:38:16.534Z,22.93
2022-08-24T18:40:52.381Z,22.92
2022-08-24T18:43:24.121Z,22.91
2022-08-24T18:45:53.281Z,22.90
2022-08-24T18:48:21.667Z,22.87
2022-08-24T18:50:51.816Z,22.85
2022-08-24T18:53:19.972Z,22.84
2022-08-24T18:55:48.473Z,22.82
2022-08-24T18:58:16.447Z,22.79
2022-08-24T19:00:44.415Z,22.79
2022-08-24T19:03:17.632Z,22.77
2022-08-24T19:05:45.604Z,22.76
2022-08-24T19:08:13.628Z,22.73
2022-08-24T19:10:41.146Z,22.72
2022-08-24T19:13:15.428Z,22.71
2022-08-24T19:15:46.714Z,22.69
2022-08-24T19:18:17.474Z,22.65
2022-08-24T19:20:49.686Z,22.61
2022-08-24T19:23:32.441Z,22.59
2022-08-24T19:26:02.470Z,22.55
2022-08-24T19:28:31.308Z,22.50
2022-08-24T19:31:02.609Z,22.45
2022-08-24T19:33:37.127Z,22.38
2022-08-24T19:36:05.781Z,22.33
2022-08-24T19:38:33.801Z,22.29
2022-08-24T19:41:11.181Z,22.27
2022-08-24T19:44:00.957Z,22.23
2022-08-24T19:46:28.559Z,22.16
2022-08-24T19:48:56.440Z,22.17
2022-08-24T19:51:24.692Z,22.17
2022-08-24T19:53:52.938Z,22.17
2022-08-24T19:56:20.850Z,22.18
2022-08-24T19:58:53.663Z,22.20
2022-08-24T20:01:28.965Z,22.23
2022-08-24T20:03:57.080Z,22.25
2022-08-24T20:06:25.806Z,22.24
2022-08-24T20:08:53.787Z,22.17
2022-08-24T20:11:25.234Z,22.14
2022-08-24T20:13:53.849Z,22.08
2022-08-24T20:16:24.687Z,22.03
2022-08-24T20:18:52.634Z,21.99
2022-08-24T20:21:20.640Z,21.95
2022-08-24T20:23:48.267Z,21.92
2022-08-24T20:26:16.100Z,21.90
2022-08-24T20:28:54.959Z,21.88
2022-08-24T20:31:28.442Z,21.84
2022-08-24T20:33:57.510Z,21.83
2022-08-24T20:36:39.301Z,21.78
2022-08-24T20:39:13.202Z,21.82
2022-08-24T20:41:41.307Z,21.79
2022-08-24T20:44:09.329Z,21.81
2022-08-24T20:46:39.798Z,21.84
2022-08-24T20:49:14.521Z,21.92
2022-08-24T20:51:43.327Z,21.95
2022-08-24T20:54:12.167Z,22.00
2022-08-24T20:56:39.902Z,22.03
2022-08-24T20:59:11.288Z,22.08
2022-08-24T21:01:43.653Z,21.95
2022-08-24T21:04:11.866Z,21.90
2022-08-24T21:06:44.813Z,21.80
2022-08-24T21:09:14.218Z,21.73
2022-08-24T21:11:43.569Z,21.70
2022-08-24T21:14:11.276Z,21.68
2022-08-24T21:16:42.047Z,21.67
2022-08-24T21:19:12.928Z,21.64
2022-08-24T21:21:42.567Z,21.57
2022-08-24T21:24:10.865Z,21.49
2022-08-24T21:26:39.668Z,21.42
2022-08-24T21:29:09.569Z,21.37
2022-08-24T21:31:37.610Z,21.31
2022-08-24T21:34:25.012Z,21.35
2022-08-24T21:36:55.001Z,21.30
2022-08-24T21:39:24.373Z,21.28
2022-08-24T21:41:53.476Z,21.36
2022-08-24T21:44:21.012Z,21.33
2022-08-24T21:46:49.994Z,21.37
2022-08-24T21:49:17.623Z,21.41
2022-08-24T21:51:45.115Z,21.42
2022-08-24T21:54:13.461Z,21.45
2022-08-24T21:56:41.069Z,21.47
2022-08-24T21:59:08.674Z,21.49
2022-08-24T22:01:38.710Z,21.48
2022-08-24T22:04:07.046Z,21.50
2022-08-24T22:06:34.771Z,21.49
2022-08-24T22:09:03.296Z,21.45
2022-08-24T22:11:31.654Z,21.44
2022-08-24T22:13:59.933Z,21.42
2022-08-24T22:16:27.905Z,21.44
2022-08-24T22:18:55.818Z,21.49
2022-08-24T22:21:26.353Z,21.54
2022-08-24T22:23:56.655Z,21.55
2022-08-24T22:26:27.129Z,21.58
2022-08-24T22:28:56.823Z,21.63
2022-08-24T22:31:35.997Z,21.69
2022-08-24T22:34:17.275Z,21.73
2022-08-24T22:36:49.210Z,21.74
2022-08-24T22:39:17.377Z,21.74
2022-08-24T22:41:45.517Z,21.72
2022-08-24T22:44:19.691Z,21.76
2022-08-24T22:46:56.967Z,21.80
2022-08-24T22:49:30.465Z,21.81
2022-08-24T22:51:59.529Z,21.82
2022-08-24T22:54:27.250Z,21.82
2022-08-24T22:56:57.249Z,21.82
2022-08-24T22:59:35.811Z,21.83
2022-08-24T23:02:13.603Z,21.80
2022-08-24T23:04:45.198Z,21.79
2022-08-24T23:07:13.096Z,21.76
2022-08-24T23:09:44.590Z,21.72
2022-08-24T23:12:19.569Z,21.71
2022-08-24T23:14:47.849Z,21.70
2022-08-24T23:17:15.664Z,21.71
2022-08-24T23:20:01.674Z,21.66
2022-08-24T23:22:34.642Z,21.65
2022-08-24T23:25:02.881Z,21.56
2022-08-24T23:27:37.167Z,21.52
2022-08-24T23:30:10.756Z,21.43
2022-08-24T23:32:39.812Z,21.40
2022-08-24T23:35:08.321Z,21.40
2022-08-24T23:37:35.998Z,21.45
2022-08-24T23:40:04.990Z,21.51
2022-08-24T23:42:32.473Z,21.56
2022-08-24T23:44:59.985Z,21.59
2022-08-24T23:47:28.804Z,21.64
2022-08-24T23:49:56.493Z,21.65
2022-08-24T23:52:28.560Z,21.70
2022-08-24T23:55:07.073Z,21.73
2022-08-24T23:57:46.792Z,21.71
